Terminal Aerodrome Forecast
Issued by NWS Wichita, KS

Home | Current Version | Previous Version | Graphics & Text | Print | Product List | Glossary On
Versions: 1 2 3 4 5 6 7 8 9 10 11 12 13 14 15 16 17 18 19 20 21
000
FTUS43 KICT 290037 AAB
TAFICT
TAF AMD
KICT 290037Z 2901/2924 17012KT P6SM VCTS SCT040CB BKN080
      TEMPO 2901/2903 VRB40G50KT 2SM +TSRA OVC030CB
     FM290900 01007KT P6SM SCT060
     FM291200 01006KT P6SM FEW250=

USA.gov is the U.S. government's official web portal to all federal, state and local government web resources and services.